createdAt,value
2019-06-08T00:00:59.351Z,95.51
2019-06-08T00:01:59.368Z,95.22
2019-06-08T00:02:59.380Z,95.12
2019-06-08T00:03:59.392Z,95.22
2019-06-08T00:04:59.413Z,95.22
2019-06-08T00:05:59.427Z,95.32
2019-06-08T00:06:59.431Z,95.51
2019-06-08T00:07:59.449Z,95.51
2019-06-08T00:08:59.461Z,95.22
2019-06-08T00:09:59.475Z,95.32
2019-06-08T00:10:59.490Z,95.36
2019-06-08T00:11:59.501Z,95.17
2019-06-08T00:12:59.515Z,95.46
2019-06-08T00:13:59.525Z,95.17
2019-06-08T00:14:59.541Z,95.84
2019-06-08T00:15:59.551Z,95.46
2019-06-08T00:16:59.564Z,96.03
2019-06-08T00:17:59.582Z,95.65
2019-06-08T00:18:59.596Z,96.03
2019-06-08T00:19:59.607Z,95.75
2019-06-08T00:20:59.616Z,95.84
2019-06-08T00:21:59.629Z,95.94
2019-06-08T00:22:59.647Z,95.84
2019-06-08T00:23:59.661Z,95.65
2019-06-08T00:24:59.675Z,95.84
2019-06-08T00:25:59.686Z,95.65
2019-06-08T00:26:59.700Z,95.84
2019-06-08T00:27:59.719Z,95.27
2019-06-08T00:28:59.727Z,96.03
2019-06-08T00:29:59.735Z,95.75
2019-06-08T00:30:59.748Z,96.03
2019-06-08T00:31:59.765Z,95.75
2019-06-08T00:32:59.775Z,95.56
2019-06-08T00:33:59.787Z,95.84
2019-06-08T00:34:59.803Z,95.65
2019-06-08T00:35:59.811Z,95.84
2019-06-08T00:36:59.829Z,95.65
2019-06-08T00:37:59.889Z,95.94
2019-06-08T00:38:59.853Z,95.65
2019-06-08T00:39:59.863Z,95.84
2019-06-08T00:40:59.879Z,95.36
2019-06-08T00:41:59.891Z,95.94
2019-06-08T00:42:59.907Z,95.75
2019-06-08T00:43:59.971Z,95.84
2019-06-08T00:44:59.928Z,95.75
2019-06-08T00:45:59.954Z,95.56
2019-06-08T00:46:59.956Z,95.94
2019-06-08T00:47:59.969Z,95.84
2019-06-08T00:48:59.982Z,95.65
2019-06-08T00:49:59.996Z,95.56
2019-06-08T00:51:00.006Z,95.60
2019-06-08T00:52:00.017Z,95.70
2019-06-08T00:53:00.039Z,95.65
2019-06-08T00:54:00.046Z,95.98
2019-06-08T00:55:00.067Z,95.32
2019-06-08T00:56:00.071Z,95.94
2019-06-08T00:57:00.087Z,95.12
2019-06-08T00:58:00.097Z,95.32
2019-06-08T00:59:00.112Z,95.56
2019-06-08T01:00:00.125Z,95.32
2019-06-08T01:01:00.135Z,95.32
2019-06-08T01:02:00.159Z,95.22
2019-06-08T01:03:00.158Z,95.12
2019-06-08T01:04:00.169Z,95.32
2019-06-08T01:05:00.186Z,95.32
2019-06-08T01:06:00.202Z,95.89
2019-06-08T01:07:00.212Z,95.79
2019-06-08T01:08:00.220Z,95.70
2019-06-08T01:09:00.235Z,95.79
2019-06-08T01:10:00.250Z,95.70
2019-06-08T01:11:00.260Z,96.08
2019-06-08T01:12:00.272Z,96.08
2019-06-08T01:13:00.289Z,95.60
2019-06-08T01:14:00.295Z,95.60
2019-06-08T01:15:00.338Z,95.70
2019-06-08T01:16:00.324Z,96.08
2019-06-08T01:17:00.337Z,95.79
2019-06-08T01:18:03.929Z,95.41
2019-06-08T01:19:00.362Z,95.22
2019-06-08T01:20:00.373Z,94.46
2019-06-08T01:21:00.404Z,94.93
2019-06-08T01:22:00.399Z,94.56
2019-06-08T01:23:00.421Z,94.56
2019-06-08T01:24:00.425Z,94.37
2019-06-08T01:25:00.432Z,93.99
2019-06-08T01:26:00.449Z,94.18
2019-06-08T01:27:00.461Z,94.27
2019-06-08T01:28:00.471Z,94.65
2019-06-08T01:29:00.485Z,94.27
2019-06-08T01:30:00.504Z,94.27
2019-06-08T01:31:00.506Z,94.46
2019-06-08T01:32:00.519Z,94.93
2019-06-08T01:33:00.539Z,95.12
2019-06-08T01:34:00.551Z,94.56
2019-06-08T01:35:00.556Z,94.74
2019-06-08T01:36:00.585Z,95.22
2019-06-08T01:37:00.583Z,94.93
2019-06-08T01:38:00.599Z,95.12
2019-06-08T01:39:00.605Z,94.84
2019-06-08T01:40:00.618Z,94.74
2019-06-08T01:41:00.632Z,94.74
2019-06-08T01:42:00.645Z,94.84
2019-06-08T01:43:00.653Z,94.74
2019-06-08T01:44:00.665Z,94.93
2019-06-08T01:45:00.679Z,94.84
2019-06-08T01:46:00.690Z,94.56
2019-06-08T01:47:00.702Z,94.18
2019-06-08T01:48:00.718Z,95.03
2019-06-08T01:49:00.732Z,94.84
2019-06-08T01:50:00.738Z,94.37
2019-06-08T01:51:00.754Z,95.03
2019-06-08T01:52:00.761Z,95.03
2019-06-08T01:53:00.779Z,94.08
2019-06-08T01:54:00.792Z,93.84
2019-06-08T01:55:00.801Z,94.27
2019-06-08T01:56:00.812Z,93.99
2019-06-08T01:57:00.826Z,94.13
2019-06-08T01:58:00.835Z,94.79
2019-06-08T01:59:00.848Z,94.37
2019-06-08T02:00:28.686Z,93.75
2019-06-08T02:01:00.870Z,93.84
2019-06-08T02:02:00.892Z,94.51
2019-06-08T02:03:00.898Z,94.79
2019-06-08T02:04:00.906Z,94.51
2019-06-08T02:05:00.919Z,94.79
2019-06-08T02:06:00.932Z,95.36
2019-06-08T02:07:00.943Z,94.70
2019-06-08T02:08:00.954Z,95.08
2019-06-08T02:09:00.968Z,95.36
2019-06-08T02:10:00.982Z,95.27
2019-06-08T02:11:00.990Z,95.17
2019-06-08T02:12:01.004Z,94.70
2019-06-08T02:13:01.028Z,94.79
2019-06-08T02:14:01.027Z,94.51
2019-06-08T02:15:01.050Z,94.60
2019-06-08T02:16:01.055Z,93.75
2019-06-08T02:17:01.066Z,94.03
2019-06-08T02:18:01.076Z,94.13
2019-06-08T02:19:01.089Z,93.89
2019-06-08T02:20:01.095Z,94.46
2019-06-08T02:21:01.110Z,95.12
2019-06-08T02:22:01.117Z,94.84
2019-06-08T02:23:01.141Z,95.22
2019-06-08T02:24:01.140Z,94.84
2019-06-08T02:25:01.153Z,95.22
2019-06-08T02:26:01.164Z,94.18
2019-06-08T02:27:01.176Z,94.08
2019-06-08T02:28:01.189Z,94.37
2019-06-08T02:29:01.288Z,93.99
2019-06-08T02:30:01.215Z,94.84
2019-06-08T02:31:01.223Z,95.31
2019-06-08T02:32:01.234Z,94.46
2019-06-08T02:33:01.249Z,95.31
2019-06-08T02:34:01.264Z,95.22
2019-06-08T02:35:01.271Z,95.12
2019-06-08T02:36:01.277Z,94.65
2019-06-08T02:37:01.290Z,94.18
2019-06-08T02:38:01.308Z,94.18
2019-06-08T02:39:01.313Z,93.99
2019-06-08T02:40:01.324Z,93.60
2019-06-08T02:41:01.340Z,93.65
2019-06-08T02:42:01.351Z,93.08
2019-06-08T02:43:01.371Z,93.37
2019-06-08T02:44:01.368Z,92.51
2019-06-08T02:45:01.381Z,92.32
2019-06-08T02:46:01.414Z,92.42
2019-06-08T02:47:01.414Z,91.75
2019-06-08T02:48:01.426Z,91.94
2019-06-08T02:49:04.472Z,91.75
2019-06-08T02:50:01.455Z,92.13
2019-06-08T02:51:01.445Z,91.75
2019-06-08T02:52:01.461Z,92.13
2019-06-08T02:53:01.470Z,92.13
2019-06-08T02:54:01.483Z,91.75
2019-06-08T02:55:01.504Z,91.94
2019-06-08T02:56:01.501Z,92.32
2019-06-08T02:57:01.517Z,92.04
2019-06-08T02:58:01.527Z,92.23
2019-06-08T02:59:01.539Z,91.38
2019-06-08T03:00:01.550Z,91.28
2019-06-08T03:01:01.590Z,91.56
2019-06-08T03:02:01.586Z,91.19
2019-06-08T03:03:01.584Z,91.09
2019-06-08T03:04:01.593Z,91.09
2019-06-08T03:05:01.610Z,90.99
2019-06-08T03:06:01.626Z,89.76
2019-06-08T03:07:01.630Z,89.57
2019-06-08T03:08:01.659Z,90.05
2019-06-08T03:09:01.661Z,89.95
2019-06-08T03:10:01.669Z,89.81
2019-06-08T03:11:01.677Z,89.24
2019-06-08T03:12:01.686Z,88.71
2019-06-08T03:13:01.697Z,88.43
2019-06-08T03:14:01.711Z,87.95
2019-06-08T03:15:01.740Z,87.82
2019-06-08T03:16:01.744Z,87.91
2019-06-08T03:17:01.746Z,88.39
2019-06-08T03:18:01.757Z,88.20
2019-06-08T03:19:19.902Z,88.20
2019-06-08T03:20:01.784Z,88.39
2019-06-08T03:21:01.794Z,89.33
2019-06-08T03:22:01.806Z,87.62
2019-06-08T03:23:01.813Z,87.15
2019-06-08T03:24:01.829Z,86.96
2019-06-08T03:25:01.838Z,86.68
2019-06-08T03:26:01.859Z,85.35
2019-06-08T03:27:01.858Z,85.35
2019-06-08T03:28:01.870Z,85.63
2019-06-08T03:29:01.884Z,86.58
2019-06-08T03:30:15.145Z,86.58
2019-06-08T03:31:01.917Z,86.49
2019-06-08T03:32:01.922Z,86.20
2019-06-08T03:33:01.979Z,86.01
2019-06-08T03:34:01.951Z,84.87
2019-06-08T03:35:01.982Z,84.87
2019-06-08T03:36:01.960Z,84.68
2019-06-08T03:37:01.972Z,84.11
2019-06-08T03:38:01.984Z,84.59
2019-06-08T03:39:01.994Z,84.78
2019-06-08T03:40:02.009Z,84.01
2019-06-08T03:41:02.014Z,83.64
2019-06-08T03:42:02.029Z,82.59
2019-06-08T03:43:02.070Z,83.64
2019-06-08T03:44:02.051Z,83.54
2019-06-08T03:45:02.059Z,83.92
2019-06-08T03:46:02.072Z,83.26
2019-06-08T03:47:02.080Z,82.69
2019-06-08T03:48:02.102Z,83.64
2019-06-08T03:49:02.109Z,84.21
2019-06-08T03:50:02.157Z,83.36
2019-06-08T03:51:02.124Z,84.11
2019-06-08T03:52:02.137Z,84.49
2019-06-08T03:53:02.152Z,83.92
2019-06-08T03:54:02.159Z,84.21
2019-06-08T03:55:02.183Z,84.40
2019-06-08T03:56:02.180Z,84.30
2019-06-08T03:57:02.204Z,83.73
2019-06-08T03:58:02.236Z,84.21
2019-06-08T03:59:02.216Z,83.45
2019-06-08T04:00:02.223Z,84.21
2019-06-08T04:01:02.244Z,83.92
2019-06-08T04:02:02.252Z,83.83
2019-06-08T04:03:02.260Z,83.64
2019-06-08T04:04:02.266Z,83.36
2019-06-08T04:05:02.283Z,81.36
2019-06-08T04:06:02.295Z,80.98
2019-06-08T04:07:02.301Z,81.07
2019-06-08T04:08:02.310Z,81.65
2019-06-08T04:09:02.327Z,82.12
2019-06-08T04:10:02.345Z,82.12
2019-06-08T04:11:02.348Z,79.84
2019-06-08T04:12:02.385Z,80.13
2019-06-08T04:13:02.369Z,80.32
2019-06-08T04:14:02.384Z,80.22
2019-06-08T04:15:02.390Z,80.22
2019-06-08T04:16:02.404Z,79.17
2019-06-08T04:17:02.413Z,78.42
2019-06-08T04:18:02.439Z,78.61
2019-06-08T04:19:02.434Z,78.32
2019-06-08T04:20:11.100Z,78.42
2019-06-08T04:21:02.463Z,78.51
2019-06-08T04:22:02.470Z,78.70
2019-06-08T04:23:02.495Z,79.65
2019-06-08T04:24:02.493Z,79.74
2019-06-08T04:25:02.498Z,79.60
2019-06-08T04:26:02.514Z,78.42
2019-06-08T04:27:02.523Z,77.41
2019-06-08T04:28:02.530Z,77.31
2019-06-08T04:29:02.543Z,76.52
2019-06-08T04:30:02.552Z,76.75
2019-06-08T04:31:02.571Z,76.27
2019-06-08T04:32:02.575Z,77.79
2019-06-08T04:33:02.590Z,77.22
2019-06-08T04:34:02.621Z,77.12
2019-06-08T04:35:02.610Z,76.65
2019-06-08T04:36:02.658Z,76.37
2019-06-08T04:37:02.634Z,77.03
2019-06-08T04:38:02.648Z,76.84
2019-06-08T04:39:02.664Z,76.46
2019-06-08T04:40:02.665Z,76.46
2019-06-08T04:41:02.676Z,75.13
2019-06-08T04:42:02.716Z,75.70
2019-06-08T04:43:02.704Z,76.46
2019-06-08T04:44:02.712Z,76.46
2019-06-08T04:45:02.721Z,76.46
2019-06-08T04:46:02.762Z,76.75
2019-06-08T04:47:02.770Z,76.37
2019-06-08T04:48:02.778Z,75.70
2019-06-08T04:49:02.771Z,73.33
2019-06-08T04:50:21.067Z,73.71
2019-06-08T04:51:02.792Z,71.90
2019-06-08T04:52:02.803Z,71.62
2019-06-08T04:53:02.814Z,71.62
2019-06-08T04:54:02.821Z,70.67
2019-06-08T04:55:02.842Z,70.10
2019-06-08T04:56:02.849Z,69.91
2019-06-08T04:57:02.880Z,70.76
2019-06-08T04:58:02.870Z,71.14
2019-06-08T04:59:02.882Z,73.33
2019-06-08T05:00:11.966Z,72.56
2019-06-08T05:01:02.901Z,72.38
2019-06-08T05:02:02.913Z,71.14
2019-06-08T05:03:02.938Z,71.23
2019-06-08T05:04:02.937Z,70.57
2019-06-08T05:05:02.989Z,69.91
2019-06-08T05:06:02.964Z,67.44
2019-06-08T05:07:02.988Z,66.30
2019-06-08T05:08:02.995Z,65.16
2019-06-08T05:09:03.012Z,65.35
2019-06-08T05:10:03.010Z,66.58
2019-06-08T05:11:03.019Z,66.49
2019-06-08T05:12:03.032Z,65.63
2019-06-08T05:13:03.065Z,65.25
2019-06-08T05:14:03.049Z,65.06
2019-06-08T05:15:03.073Z,64.59
2019-06-08T05:16:03.173Z,64.49
2019-06-08T05:17:03.102Z,65.25
2019-06-08T05:18:03.098Z,64.02
2019-06-08T05:19:03.109Z,65.95
2019-06-08T05:20:03.168Z,66.77
2019-06-08T05:21:03.134Z,67.28
2019-06-08T05:22:03.143Z,66.77
2019-06-08T05:23:03.153Z,66.58
2019-06-08T05:24:03.173Z,66.80
2019-06-08T05:25:03.178Z,67.66
2019-06-08T05:26:03.194Z,67.38
2019-06-08T05:27:03.207Z,67.38
2019-06-08T05:28:03.212Z,67.47
2019-06-08T05:29:03.226Z,68.33
2019-06-08T05:30:08.512Z,65.28
2019-06-08T05:31:03.251Z,64.62
2019-06-08T05:32:03.259Z,64.72
2019-06-08T05:33:03.280Z,63.29
2019-06-08T05:34:03.282Z,63.86
2019-06-08T05:35:03.294Z,64.14
2019-06-08T05:36:03.309Z,64.59
2019-06-08T05:37:03.323Z,64.53
2019-06-08T05:38:03.329Z,65.67
2019-06-08T05:39:03.398Z,67.53
2019-06-08T05:40:03.354Z,69.05
2019-06-08T05:41:03.365Z,71.14
2019-06-08T05:42:03.384Z,71.66
2019-06-08T05:43:03.398Z,73.08
2019-06-08T05:44:03.400Z,71.04
2019-06-08T05:45:03.416Z,70.79
2019-06-08T05:46:03.427Z,71.90
2019-06-08T05:47:03.447Z,69.15
2019-06-08T05:48:03.531Z,67.63
2019-06-08T05:49:03.470Z,67.82
2019-06-08T05:50:03.546Z,67.63
2019-06-08T05:51:04.396Z,71.23
2019-06-08T05:52:03.500Z,73.55
2019-06-08T05:53:03.513Z,73.42
2019-06-08T05:54:03.522Z,74.41
2019-06-08T05:55:03.531Z,71.71
2019-06-08T05:56:03.545Z,72.66
2019-06-08T05:57:03.558Z,71.81
2019-06-08T05:58:03.572Z,71.14
2019-06-08T05:59:03.584Z,73.33
2019-06-08T06:00:08.851Z,74.18
2019-06-08T06:01:03.608Z,73.96
2019-06-08T06:02:03.615Z,72.95
2019-06-08T06:03:03.637Z,72.25
2019-06-08T06:04:03.641Z,72.47
2019-06-08T06:05:03.656Z,74.08
2019-06-08T06:06:03.664Z,73.14
2019-06-08T06:07:03.693Z,73.52
2019-06-08T06:08:17.589Z,75.32
2019-06-08T06:09:03.696Z,74.27
2019-06-08T06:10:03.715Z,73.52
2019-06-08T06:11:03.721Z,75.51
2019-06-08T06:12:03.733Z,73.33
2019-06-08T06:13:03.748Z,73.48
2019-06-08T06:14:03.756Z,71.67
2019-06-08T06:15:03.770Z,71.20
2019-06-08T06:16:03.782Z,73.52
2019-06-08T06:17:03.796Z,75.13
2019-06-08T06:18:03.873Z,72.38
2019-06-08T06:19:03.818Z,71.81
2019-06-08T06:20:03.828Z,73.04
2019-06-08T06:21:10.901Z,73.42
2019-06-08T06:22:03.910Z,75.42
2019-06-08T06:23:03.864Z,75.04
2019-06-08T06:24:03.871Z,74.08
2019-06-08T06:25:03.888Z,74.37
2019-06-08T06:26:03.900Z,76.93
2019-06-08T06:27:03.910Z,77.98
2019-06-08T06:28:06.271Z,77.41
2019-06-08T06:29:03.932Z,79.22
2019-06-08T06:30:03.947Z,79.88
2019-06-08T06:31:03.958Z,80.26
2019-06-08T06:32:03.968Z,80.07
2019-06-08T06:33:04.057Z,78.45
2019-06-08T06:34:03.988Z,77.89
2019-06-08T06:35:04.073Z,76.84
2019-06-08T06:36:04.012Z,78.88
2019-06-08T06:37:04.028Z,76.88
2019-06-08T06:38:04.048Z,76.59
2019-06-08T06:39:04.050Z,77.36
2019-06-08T06:40:04.058Z,78.97
2019-06-08T06:41:04.105Z,78.78
2019-06-08T06:42:04.089Z,76.40
2019-06-08T06:43:04.171Z,79.06
2019-06-08T06:44:04.106Z,79.35
2019-06-08T06:45:04.143Z,79.63
2019-06-08T06:46:04.134Z,80.11
2019-06-08T06:47:04.145Z,79.44
2019-06-08T06:48:04.165Z,79.16
2019-06-08T06:49:04.246Z,81.40
2019-06-08T06:50:04.186Z,80.55
2019-06-08T06:51:04.191Z,80.83
2019-06-08T06:52:04.245Z,79.12
2019-06-08T06:53:04.215Z,82.20
2019-06-08T06:54:04.235Z,79.25
2019-06-08T06:55:04.241Z,78.88
2019-06-08T06:56:04.250Z,77.07
2019-06-08T06:57:04.273Z,78.59
2019-06-08T06:58:04.283Z,80.02
2019-06-08T06:59:04.287Z,84.39
2019-06-08T07:00:04.308Z,82.29
2019-06-08T07:01:04.318Z,79.25
2019-06-08T07:02:04.322Z,80.34
2019-06-08T07:03:04.337Z,81.67
2019-06-08T07:04:04.346Z,76.92
2019-06-08T07:05:04.358Z,74.54
2019-06-08T07:06:04.499Z,75.68
2019-06-08T07:07:04.435Z,75.21
2019-06-08T07:08:04.397Z,70.64
2019-06-08T07:09:04.406Z,74.82
2019-06-08T07:10:04.424Z,73.40
2019-06-08T07:11:04.432Z,74.87
2019-06-08T07:12:04.445Z,73.49
2019-06-08T07:13:04.519Z,68.07
2019-06-08T07:14:04.468Z,67.73
2019-06-08T07:15:04.481Z,68.07
2019-06-08T07:16:17.937Z,73.88
2019-06-08T07:17:04.514Z,73.53
2019-06-08T07:18:04.518Z,68.68
2019-06-08T07:19:04.540Z,70.01
2019-06-08T07:20:04.545Z,72.11
2019-06-08T07:21:04.560Z,73.91
2019-06-08T07:22:04.571Z,71.91
2019-06-08T07:23:04.580Z,69.35
2019-06-08T07:24:04.598Z,69.06
2019-06-08T07:25:04.609Z,66.97
2019-06-08T07:26:04.621Z,69.79
2019-06-08T07:27:07.455Z,69.50
2019-06-08T07:28:04.644Z,71.12
2019-06-08T07:29:04.660Z,72.07
2019-06-08T07:31:04.680Z,73.21
2019-06-08T07:32:04.773Z,70.07
2019-06-08T07:33:04.702Z,67.63
2019-06-08T07:34:04.716Z,68.96
2019-06-08T07:35:04.738Z,62.88
2019-06-08T07:36:04.744Z,63.35
2019-06-08T07:37:04.757Z,63.07
2019-06-08T07:38:04.784Z,68.49
2019-06-08T07:39:04.778Z,60.97
2019-06-08T07:40:04.796Z,55.36
2019-06-08T07:41:04.806Z,55.55
2019-06-08T07:42:04.820Z,58.03
2019-06-08T07:43:04.828Z,55.36
2019-06-08T07:44:04.840Z,57.93
2019-06-08T07:45:04.858Z,52.89
2019-06-08T07:46:04.866Z,51.37
2019-06-08T07:47:04.882Z,49.46
2019-06-08T07:48:04.898Z,50.79
2019-06-08T07:49:04.908Z,53.46
2019-06-08T07:50:04.993Z,51.75
2019-06-08T07:51:04.929Z,51.08
2019-06-08T07:52:10.239Z,53.75
2019-06-08T07:53:04.956Z,55.96
2019-06-08T07:54:04.969Z,51.87
2019-06-08T07:55:04.987Z,47.30
2019-06-08T07:56:04.997Z,47.87
2019-06-08T07:57:05.004Z,49.20
2019-06-08T07:58:05.024Z,47.97
2019-06-08T07:59:05.040Z,47.68
2019-06-08T08:00:09.535Z,47.49
2019-06-08T08:01:08.091Z,49.96
2019-06-08T08:02:05.073Z,48.08
2019-06-08T08:03:05.082Z,44.26
2019-06-08T08:04:05.094Z,44.06
2019-06-08T08:05:05.106Z,45.68
2019-06-08T08:06:05.125Z,47.11
2019-06-08T08:07:05.137Z,46.54
2019-06-08T08:08:05.145Z,45.49
2019-06-08T08:09:05.160Z,45.40
2019-06-08T08:10:05.245Z,44.06
2019-06-08T08:11:05.194Z,47.61
2019-06-08T08:12:05.198Z,45.89
2019-06-08T08:13:05.208Z,45.42
2019-06-08T08:14:05.223Z,47.32
2019-06-08T08:15:05.236Z,49.51
2019-06-08T08:16:05.248Z,48.85
2019-06-08T08:17:05.262Z,46.37
2019-06-08T08:18:05.278Z,47.16
2019-06-08T08:19:05.287Z,46.01
2019-06-08T08:20:05.315Z,42.94
2019-06-08T08:21:15.839Z,44.27
2019-06-08T08:22:19.599Z,45.51
2019-06-08T08:23:06.759Z,44.85
2019-06-08T08:24:07.304Z,44.27
2019-06-08T08:25:08.031Z,44.37
2019-06-08T08:26:05.385Z,46.78
2019-06-08T08:27:08.176Z,46.01
2019-06-08T08:28:05.412Z,43.91
2019-06-08T08:29:05.424Z,44.87
2019-06-08T08:30:05.443Z,46.87
2019-06-08T08:31:07.781Z,46.49
2019-06-08T08:32:07.822Z,44.68
2019-06-08T08:33:07.802Z,47.08
2019-06-08T08:34:06.749Z,45.44
2019-06-08T08:35:05.499Z,41.82
2019-06-08T08:36:07.251Z,41.35
2019-06-08T08:37:08.972Z,44.30
2019-06-08T08:38:07.550Z,44.01
2019-06-08T08:39:08.188Z,41.61
2019-06-08T08:40:07.704Z,43.32
2019-06-08T08:41:08.272Z,44.85
2019-06-08T08:42:05.665Z,44.09
2019-06-08T08:43:05.608Z,44.75
2019-06-08T08:44:07.825Z,44.27
2019-06-08T08:45:08.633Z,43.80
2019-06-08T08:46:07.692Z,47.63
2019-06-08T08:47:07.619Z,46.01
2019-06-08T08:48:21.185Z,45.92
2019-06-08T08:49:12.087Z,46.13
2019-06-08T08:50:07.394Z,45.75
2019-06-08T08:51:08.374Z,46.51
2019-06-08T08:52:05.727Z,44.13
2019-06-08T08:53:05.742Z,45.65
2019-06-08T08:54:08.439Z,46.89
2019-06-08T08:55:08.093Z,48.90
2019-06-08T08:56:07.379Z,47.47
2019-06-08T08:57:08.327Z,47.47
2019-06-08T08:58:08.199Z,44.70
2019-06-08T08:59:07.849Z,42.11
2019-06-08T09:00:08.355Z,45.63
2019-06-08T09:01:08.086Z,47.94
2019-06-08T09:02:10.992Z,51.78
2019-06-08T09:03:24.323Z,50.26
2019-06-08T09:04:08.593Z,44.25
2019-06-08T09:05:08.334Z,44.89
2019-06-08T09:06:08.226Z,45.68
2019-06-08T09:07:09.478Z,44.04
2019-06-08T09:08:08.633Z,43.18
2019-06-08T09:09:08.657Z,44.23
2019-06-08T09:10:10.797Z,47.37
2019-06-08T09:11:08.118Z,43.16
2019-06-08T09:12:08.091Z,41.52
2019-06-08T09:13:11.724Z,43.61
2019-06-08T09:14:12.560Z,48.78
2019-06-08T09:15:08.305Z,50.97
2019-06-08T09:16:07.991Z,50.52
2019-06-08T09:17:08.560Z,47.85
2019-06-08T09:18:08.091Z,48.92
2019-06-08T09:19:08.326Z,47.49
2019-06-08T09:20:11.100Z,42.22
2019-06-08T09:21:08.148Z,43.44
2019-06-08T09:22:08.343Z,44.23
2019-06-08T09:23:14.686Z,45.56
2019-06-08T09:24:07.631Z,45.18
2019-06-08T09:25:08.644Z,45.56
2019-06-08T09:26:11.882Z,47.66
2019-06-08T09:27:08.038Z,47.02
2019-06-08T09:28:08.295Z,44.99
2019-06-08T09:29:10.642Z,45.94
2019-06-08T09:30:08.331Z,47.20
2019-06-08T09:31:08.383Z,48.63
2019-06-08T09:32:08.208Z,44.92
2019-06-08T09:33:08.005Z,42.53
2019-06-08T09:34:14.085Z,44.63
2019-06-08T09:35:09.114Z,45.39
2019-06-08T09:36:08.008Z,45.97
2019-06-08T09:37:08.049Z,44.53
2019-06-08T09:38:08.542Z,44.15
2019-06-08T09:39:12.357Z,46.63
2019-06-08T09:40:06.438Z,47.49
2019-06-08T09:41:08.772Z,47.52
2019-06-08T09:42:08.784Z,47.89
2019-06-08T09:43:12.337Z,45.42
2019-06-08T09:44:10.611Z,46.18
2019-06-08T09:45:09.028Z,44.65
2019-06-08T09:46:09.112Z,44.65
2019-06-08T09:47:12.394Z,46.56
2019-06-08T09:48:09.315Z,46.58
2019-06-08T09:49:09.325Z,46.20
2019-06-08T09:50:09.232Z,47.06
2019-06-08T09:51:09.373Z,49.54
2019-06-08T09:52:08.642Z,51.57
2019-06-08T09:53:23.110Z,45.53
2019-06-08T09:54:11.838Z,44.94
2019-06-08T09:55:09.114Z,45.89
2019-06-08T09:56:09.572Z,45.89
2019-06-08T09:57:08.807Z,48.28
2019-06-08T09:58:11.497Z,47.82
2019-06-08T09:59:10.422Z,47.44
2019-06-08T10:00:17.262Z,47.44
2019-06-08T10:01:09.110Z,46.30
2019-06-08T10:02:12.454Z,46.11
2019-06-08T10:03:09.280Z,46.13
2019-06-08T10:04:09.216Z,45.06
2019-06-08T10:05:06.755Z,45.82
2019-06-08T10:06:10.893Z,45.82
2019-06-08T10:07:08.864Z,46.20
2019-06-08T10:08:09.289Z,45.34
2019-06-08T10:09:08.824Z,45.43
2019-06-08T10:10:09.623Z,43.89
2019-06-08T10:11:09.381Z,43.32
2019-06-08T10:12:09.707Z,46.75
2019-06-08T10:13:09.474Z,46.01
2019-06-08T10:14:11.638Z,43.33
2019-06-08T10:15:08.146Z,44.89
2019-06-08T10:16:10.064Z,43.24
2019-06-08T10:17:08.966Z,46.87
2019-06-08T10:18:08.255Z,45.82
2019-06-08T10:19:10.126Z,46.11
2019-06-08T10:20:09.797Z,46.39
2019-06-08T10:21:09.451Z,46.61
2019-06-08T10:22:08.590Z,44.20
2019-06-08T10:23:26.875Z,45.94
2019-06-08T10:24:09.432Z,46.58
2019-06-08T10:25:10.783Z,49.76
2019-06-08T10:26:07.078Z,44.29
2019-06-08T10:27:08.590Z,43.03
2019-06-08T10:28:13.218Z,44.27
2019-06-08T10:29:09.916Z,45.99
2019-06-08T10:30:09.881Z,47.25
2019-06-08T10:31:07.165Z,45.03
2019-06-08T10:32:08.850Z,46.48
2019-06-08T10:33:09.853Z,47.44
2019-06-08T10:34:10.887Z,43.98
2019-06-08T10:35:10.121Z,44.84
2019-06-08T10:36:12.361Z,44.84
2019-06-08T10:37:12.725Z,46.77
2019-06-08T10:38:11.630Z,46.58
2019-06-08T10:39:11.372Z,47.27
2019-06-08T10:40:07.807Z,45.65
2019-06-08T10:41:16.130Z,46.58
2019-06-08T10:42:10.161Z,46.01
2019-06-08T10:43:09.504Z,45.25
2019-06-08T10:44:11.200Z,49.57
2019-06-08T10:45:10.409Z,46.70
2019-06-08T10:46:14.715Z,46.42
2019-06-08T10:47:10.009Z,47.20
2019-06-08T10:48:07.409Z,46.15
2019-06-08T10:49:13.152Z,44.79
2019-06-08T10:50:11.190Z,46.82
2019-06-08T10:51:10.706Z,44.89
2019-06-08T10:52:11.405Z,48.07
2019-06-08T10:53:10.460Z,46.06
2019-06-08T10:54:10.348Z,45.01
2019-06-08T10:55:10.366Z,42.38
2019-06-08T10:56:10.317Z,44.77
2019-06-08T10:57:07.832Z,47.34
2019-06-08T10:58:10.927Z,47.06
2019-06-08T10:59:10.454Z,47.56
2019-06-08T11:00:17.998Z,44.51
2019-06-08T11:01:12.118Z,47.47
2019-06-08T11:02:12.483Z,46.03
2019-06-08T11:03:10.174Z,47.87
2019-06-08T11:04:09.266Z,47.11
2019-06-08T11:05:12.526Z,50.67
2019-06-08T11:06:12.817Z,46.27
2019-06-08T11:07:13.185Z,43.48
2019-06-08T11:08:12.960Z,43.26
2019-06-08T11:09:12.726Z,46.25
2019-06-08T11:10:11.692Z,47.42
2019-06-08T11:11:09.847Z,46.37
2019-06-08T11:12:14.332Z,46.75
2019-06-08T11:13:13.265Z,45.39
2019-06-08T11:14:12.411Z,47.03
2019-06-08T11:15:11.578Z,44.91
2019-06-08T11:16:12.543Z,45.48
2019-06-08T11:17:09.956Z,45.96
2019-06-08T11:18:11.829Z,46.08
2019-06-08T11:19:12.904Z,42.69
2019-06-08T11:20:13.101Z,44.02
2019-06-08T11:21:12.241Z,45.67
2019-06-08T11:22:12.864Z,43.55
2019-06-08T11:23:12.278Z,43.46
2019-06-08T11:24:23.039Z,44.51
2019-06-08T11:25:15.164Z,47.87
2019-06-08T11:26:17.524Z,48.78
2019-06-08T11:27:11.163Z,44.93
2019-06-08T11:28:13.789Z,45.91
2019-06-08T11:29:11.781Z,45.62
2019-06-08T11:30:14.224Z,46.67
2019-06-08T11:31:13.241Z,43.44
2019-06-08T11:32:10.974Z,43.52
2019-06-08T11:33:09.438Z,42.94
2019-06-08T11:34:08.660Z,43.88
2019-06-08T11:35:10.741Z,46.01
2019-06-08T11:36:13.581Z,44.38
2019-06-08T11:37:11.899Z,45.43
2019-06-08T11:38:10.972Z,46.10
2019-06-08T11:39:10.804Z,44.86
2019-06-08T11:40:11.874Z,44.57
2019-06-08T11:41:12.193Z,45.03
2019-06-08T11:42:10.978Z,45.72
2019-06-08T11:43:08.646Z,44.93
2019-06-08T11:44:12.439Z,45.34
2019-06-08T11:45:11.041Z,48.33
2019-06-08T11:46:08.454Z,44.59
2019-06-08T11:47:12.226Z,47.08
2019-06-08T11:48:08.765Z,44.98
2019-06-08T11:49:12.886Z,44.29
2019-06-08T11:50:11.693Z,46.03
2019-06-08T11:51:10.627Z,45.45
2019-06-08T11:52:09.102Z,44.95
2019-06-08T11:53:12.330Z,45.07
2019-06-08T11:54:25.241Z,44.79
2019-06-08T11:55:11.298Z,46.34
2019-06-08T11:56:10.019Z,47.22
2019-06-08T11:57:11.652Z,41.55
2019-06-08T11:58:10.456Z,45.50
2019-06-08T11:59:11.552Z,43.35
2019-06-08T12:00:15.076Z,42.82
2019-06-08T12:01:11.863Z,44.06
2019-06-08T12:02:12.039Z,42.91
2019-06-08T12:03:10.436Z,41.05
2019-06-08T12:04:09.846Z,45.09
2019-06-08T12:05:11.117Z,43.27
2019-06-08T12:06:11.113Z,43.85
2019-06-08T12:07:09.558Z,44.54
2019-06-08T12:08:08.688Z,43.30
2019-06-08T12:09:09.528Z,41.94
2019-06-08T12:10:09.649Z,42.13
2019-06-08T12:11:14.865Z,42.05
2019-06-08T12:12:12.312Z,43.68
2019-06-08T12:13:09.747Z,42.14
2019-06-08T12:14:10.811Z,42.13
2019-06-08T12:15:11.579Z,45.98
2019-06-08T12:16:14.939Z,42.32
2019-06-08T12:17:12.427Z,42.03
2019-06-08T12:18:10.984Z,41.15
2019-06-08T12:19:12.025Z,43.73
2019-06-08T12:20:13.973Z,42.11
2019-06-08T12:21:11.102Z,41.05
2019-06-08T12:22:11.496Z,42.30
2019-06-08T12:23:10.021Z,44.71
2019-06-08T12:24:10.277Z,46.08
2019-06-08T12:25:10.323Z,42.63
2019-06-08T12:26:10.120Z,42.34
2019-06-08T12:27:21.787Z,42.44
2019-06-08T12:28:09.036Z,42.53
2019-06-08T12:29:11.544Z,39.97
2019-06-08T12:30:17.405Z,43.05
2019-06-08T12:31:13.213Z,39.39
2019-06-08T12:32:10.738Z,38.89
2019-06-08T12:33:09.880Z,42.05
2019-06-08T12:34:09.271Z,42.03
2019-06-08T12:35:10.862Z,43.20
2019-06-08T12:36:13.577Z,40.81
2019-06-08T12:37:14.673Z,42.34
2019-06-08T12:38:09.983Z,40.61
2019-06-08T12:39:10.110Z,41.77
2019-06-08T12:40:11.490Z,39.65
2019-06-08T12:41:11.076Z,40.09
2019-06-08T12:42:15.569Z,41.46
2019-06-08T12:43:11.297Z,42.14
2019-06-08T12:44:10.421Z,40.02
2019-06-08T12:45:09.467Z,42.63
2019-06-08T12:46:11.122Z,41.48
2019-06-08T12:47:13.334Z,41.78
2019-06-08T12:48:14.598Z,42.46
2019-06-08T12:49:11.245Z,40.06
2019-06-08T12:50:13.070Z,41.97
2019-06-08T12:51:11.542Z,40.54
2019-06-08T12:52:10.414Z,40.66
2019-06-08T12:53:14.402Z,39.39
2019-06-08T12:54:12.355Z,40.92